sensor_id;sensor_type;location;lat;lon;timestamp;temperature;humidity
13310;DHT22;6723;48.256;16.402;2023-12-07T22:08:25;0.60;99.90
13310;DHT22;6723;48.256;16.402;2023-12-07T22:10:51;0.60;99.90
13310;DHT22;6723;48.256;16.402;2023-12-07T22:13:17;0.60;99.90
13310;DHT22;6723;48.256;16.402;2023-12-07T22:15:43;0.60;99.90
13310;DHT22;6723;48.256;16.402;2023-12-07T22:18:09;0.60;99.90
13310;DHT22;6723;48.256;16.402;2023-12-07T22:20:35;0.60;99.90
13310;DHT22;6723;48.256;16.402;2023-12-07T22:23:00;0.50;99.90
13310;DHT22;6723;48.256;16.402;2023-12-07T22:25:26;0.40;99.90
13310;DHT22;6723;48.256;16.402;2023-12-07T22:27:52;0.50;99.90
13310;DHT22;6723;48.256;16.402;2023-12-07T22:30:20;0.40;99.90
13310;DHT22;6723;48.256;16.402;2023-12-07T22:32:46;0.30;99.90
13310;DHT22;6723;48.256;16.402;2023-12-07T22:35:18;0.30;99.90
13310;DHT22;6723;48.256;16.402;2023-12-07T22:37:47;0.20;99.90
13310;DHT22;6723;48.256;16.402;2023-12-07T22:40:15;0.10;99.90
13310;DHT22;6723;48.256;16.402;2023-12-07T22:42:41;0.20;99.90
13310;DHT22;6723;48.256;16.402;2023-12-07T22:45:08;0.10;99.90
13310;DHT22;6723;48.256;16.402;2023-12-07T22:47:34;0.10;99.90
13310;DHT22;6723;48.256;16.402;2023-12-07T22:50:00;0.00;99.90
13310;DHT22;6723;48.256;16.402;2023-12-07T22:52:26;-0.10;99.90
13310;DHT22;6723;48.256;16.402;2023-12-07T22:54:52;-0.10;99.90
13310;DHT22;6723;48.256;16.402;2023-12-07T22:57:18;-0.10;99.90
13310;DHT22;6723;48.256;16.402;2023-12-07T22:59:44;-0.10;99.90
13310;DHT22;6723;48.256;16.402;2023-12-07T23:02:09;-0.20;99.90
13310;DHT22;6723;48.256;16.402;2023-12-07T23:04:40;-0.20;99.90
13310;DHT22;6723;48.256;16.402;2023-12-07T23:07:09;-0.20;99.90
13310;DHT22;6723;48.256;16.402;2023-12-07T23:09:35;-0.30;99.90
13310;DHT22;6723;48.256;16.402;2023-12-07T23:18:30;-0.20;99.90
13310;DHT22;6723;48.256;16.402;2023-12-07T23:20:56;-0.10;99.90
13310;DHT22;6723;48.256;16.402;2023-12-07T23:23:22;-0.20;99.90
13310;DHT22;6723;48.256;16.402;2023-12-07T23:25:50;-0.20;99.90
13310;DHT22;6723;48.256;16.402;2023-12-07T23:28:19;-0.20;99.90
13310;DHT22;6723;48.256;16.402;2023-12-07T23:30:45;-0.20;99.90
13310;DHT22;6723;48.256;16.402;2023-12-07T23:33:11;-0.20;99.90
13310;DHT22;6723;48.256;16.402;2023-12-07T23:35:36;-0.20;99.90
13310;DHT22;6723;48.256;16.402;2023-12-07T23:38:02;-0.20;99.90
13310;DHT22;6723;48.256;16.402;2023-12-07T23:40:31;-0.20;99.90
13310;DHT22;6723;48.256;16.402;2023-12-07T23:42:57;-0.10;99.90
13310;DHT22;6723;48.256;16.402;2023-12-07T23:45:23;-0.10;99.90
13310;DHT22;6723;48.256;16.402;2023-12-07T23:47:49;-0.20;99.90
13310;DHT22;6723;48.256;16.402;2023-12-07T23:50:15;-0.30;99.90
13310;DHT22;6723;48.256;16.402;2023-12-07T23:52:40;-0.20;99.90
13310;DHT22;6723;48.256;16.402;2023-12-07T23:55:07;-0.30;99.90
13310;DHT22;6723;48.256;16.402;2023-12-07T23:57:34;-0.40;99.90
